Schenectady, NY (12008)

6:54 AM EDT on April 21, 2015 (GMT -0400)
Daily Gazette | | Change Station
CLOSE
Current Station
Personal Weather Station
Location: Schenectady, NY
Elevation: 295 ft
Nearby Weather Stations

Elev 295 ft 42.83 °N, 73.92 °W | Updated 0 second ago

Overcast
Overcast
48.0 °F
Feels Like 48 °F
N
2.9
Wind Variable Wind from West
Gusts 8.9 mph

Today
High -- | Low -- °F
--% Chance of Precip.
Yesterday
High -- | Low -- °F
Precip. -- in
6:04 AM 7:44 PM
Waxing Crescent, 9% visible
Pressure 29.55 in
Visibility 9.0 miles
Clouds Few 500 ft
Overcast 1200 ft
Windchill 48 °F
Dew Point 48 °F
Humidity 100%
Rainfall 0.45 in
Snow Depth Not available.
UV 0 out of 12
Pollen 4.50 out of 12
Air Quality Not available.
Flu Activity Widespread
METAR KALB 210951Z 34005KT 9SM FEW005 OVC012 10/09 A2954 RMK AO2 RAE23 SLP004 P0001 T01000089

More Conditions Fewer Conditions

Pressure 29.55 in
Visibility 9.0 miles
Clouds Few 500 ft
Overcast 1200 ft
Windchill 48 °F
Dew Point 48 °F
Humidity 100%
Rainfall 0.45 in
Snow Depth Not available.
UV 0 out of 12
Pollen 4.50 out of 12
Air Quality Not available.
Flu Activity Widespread
METAR KALB 210951Z 34005KT 9SM FEW005 OVC012 10/09 A2954 RMK AO2 RAE23 SLP004 P0001 T01000089

More Conditions Fewer Conditions

10-Day Weather Forecast

Almanac

Astronomy

Apr. 21, 2015 Rise Set
Actual Time
Civil Twilight
Nautical Twilight
Astronomical Twilight
Moon
Length of Visible Light
Length of Day
Tomorrow will be .
, % of the Moon is Illuminated

Today's Extremes

State Highs State Lows

Community

WunderPhotos

Upload Photos

1,815,340 photos uploaded!

WunderBlogs® & News

Nearby

Air Quality

  Air Quality AQ Index Pollutant
Not available.

Snow Depth

Station Depth Elevation

Earthquake Activity

City Distance Mag. Time & Date
Minimum magnitude displayed is 2.5.

Coastal Water Temperatures

Place Temperature

Stations

Nearby Weather Stations

Station Location Temp. Windchill Dew Point Humidity Wind Precip. Elev Updated Type